KSBY/SBY METAR and TAF weather

Enter ICAO airport designator
Station Type Date Time Source
KSBY METAR 2020/01/27 16:54 UTC NOAA

KSBY 271654Z 27013KT 10SM SCT044 10/M01 A2980 RMK AO2 SLP092 T01001011


Station Type Date Time Source
KSBY Decoded METAR 2020/01/27 16:54 UTC NOAA

SALISBURY-WICOMICO CTY REG, MD, United States (KSBY) 38-20N 075-30W 19M
Jan 27, 2020 - 11:54 AM EST / 2020.01.27 1654 UTC
Wind: from the W (270 degrees) at 15 MPH (13 KT):0
Visibility: 10 mile(s):0
Sky conditions: partly cloudy
Temperature: 50.0 F (10.0 C)
Dew Point: 30.0 F (-1.1 C)
Relative Humidity: 45%
Pressure (altimeter): 29.8 in. Hg (1009 hPa)
ob: KSBY 271654Z 27013KT 10SM SCT044 10/M01 A2980 RMK AO2 SLP092 T01001011
cycle: 17

Station Type Date Time Source
KSBY TAF 2020/01/27 12:22 UTC NOAA

TAF KSBY 271120Z 2712/2812 VRB03KT P6SM SCT250
FM271500 27009KT P6SM SCT070
FM280000 30004KT P6SM SCT060

Example: see airport list